createdAt,value
2022-09-15T00:01:46.474Z,13.35
2022-09-15T00:03:48.661Z,12.88
2022-09-15T00:05:52.734Z,15.98
2022-09-15T00:07:54.281Z,9.00
2022-09-15T00:09:55.926Z,15.20
2022-09-15T00:11:57.834Z,10.65
2022-09-15T00:14:00.951Z,9.98
2022-09-15T00:16:03.433Z,10.85
2022-09-15T00:18:06.332Z,7.78
2022-09-15T00:20:08.543Z,13.40
2022-09-15T00:22:10.216Z,11.55
2022-09-15T00:24:11.854Z,13.18
2022-09-15T00:26:15.957Z,7.45
2022-09-15T00:28:19.580Z,9.63
2022-09-15T00:32:22.866Z,9.20
2022-09-15T00:34:24.558Z,10.40
2022-09-15T00:36:27.035Z,10.23
2022-09-15T00:38:28.966Z,11.52
2022-09-15T00:40:30.634Z,7.93
2022-09-15T00:42:32.353Z,11.95
2022-09-15T00:44:37.159Z,9.90
2022-09-15T00:46:41.142Z,8.40
2022-09-15T00:48:50.228Z,9.88
2022-09-15T00:50:55.085Z,10.20
2022-09-15T00:52:59.105Z,9.52
2022-09-15T00:55:10.372Z,11.27
2022-09-15T00:57:23.443Z,9.23
2022-09-15T00:59:27.538Z,9.50
2022-09-15T01:01:31.235Z,10.73
2022-09-15T01:03:33.729Z,9.38
2022-09-15T01:05:46.190Z,10.02
2022-09-15T01:08:00.755Z,10.10
2022-09-15T01:10:09.684Z,6.97
2022-09-15T01:12:11.313Z,8.52
2022-09-15T01:14:12.936Z,5.95
2022-09-15T01:16:57.726Z,7.38
2022-09-15T01:19:17.750Z,7.47
2022-09-15T01:21:25.244Z,8.25
2022-09-15T01:23:29.818Z,5.88
2022-09-15T01:25:43.613Z,7.63
2022-09-15T01:28:09.599Z,10.90
2022-09-15T01:30:17.671Z,8.95
2022-09-15T01:32:40.479Z,7.30
2022-09-15T01:34:46.779Z,6.05
2022-09-15T01:36:55.143Z,7.78
2022-09-15T01:39:08.430Z,6.93
2022-09-15T01:41:16.173Z,8.75
2022-09-15T01:43:19.967Z,5.22
2022-09-15T01:45:30.687Z,5.85
2022-09-15T01:47:34.343Z,4.82
2022-09-15T01:51:51.801Z,12.35
2022-09-15T01:53:54.232Z,9.05
2022-09-15T01:56:06.221Z,9.02
2022-09-15T01:58:08.543Z,6.93
2022-09-15T02:00:10.866Z,9.18
2022-09-15T02:02:17.907Z,5.05
2022-09-15T02:04:34.845Z,8.30
2022-09-15T02:07:13.987Z,10.55
2022-09-15T02:09:22.717Z,6.88
2022-09-15T02:11:30.603Z,5.95
2022-09-15T02:13:54.188Z,6.68
2022-09-15T02:15:58.143Z,7.23
2022-09-15T02:18:01.529Z,4.70
2022-09-15T02:20:10.444Z,5.88
2022-09-15T02:22:23.334Z,5.45
2022-09-15T02:24:30.332Z,8.77
2022-09-15T02:26:33.600Z,6.35
2022-09-15T02:28:37.267Z,6.38
2022-09-15T02:32:57.379Z,6.30
2022-09-15T02:34:59.432Z,5.88
2022-09-15T02:37:01.944Z,8.25
2022-09-15T02:39:10.558Z,6.28
2022-09-15T02:41:13.798Z,7.70
2022-09-15T02:43:17.343Z,6.82
2022-09-15T02:45:20.214Z,7.97
2022-09-15T02:47:22.213Z,8.68
2022-09-15T02:49:23.882Z,6.88
2022-09-15T02:51:25.493Z,9.68
2022-09-15T02:53:27.086Z,9.15
2022-09-15T02:55:29.243Z,8.98
2022-09-15T02:57:30.828Z,7.40
2022-09-15T02:59:52.655Z,10.80
2022-09-15T03:01:54.390Z,7.63
2022-09-15T03:03:56.078Z,7.15
2022-09-15T03:06:16.424Z,7.80
2022-09-15T03:08:18.239Z,5.80
2022-09-15T03:10:20.240Z,8.57
2022-09-15T03:12:40.874Z,9.07
2022-09-15T03:14:43.064Z,5.85
2022-09-15T03:16:44.791Z,14.20
2022-09-15T03:18:46.893Z,12.60
2022-09-15T03:20:48.457Z,10.52
2022-09-15T03:22:50.166Z,7.85
2022-09-15T03:24:51.883Z,8.68
2022-09-15T03:26:53.587Z,10.30
2022-09-15T03:28:55.321Z,9.05
2022-09-15T03:30:56.921Z,9.10
2022-09-15T03:32:58.552Z,9.50
2022-09-15T03:35:00.281Z,11.13
2022-09-15T03:37:01.927Z,12.75
2022-09-15T03:39:03.882Z,9.68
2022-09-15T03:41:10.592Z,8.35
2022-09-15T03:43:18.047Z,13.00
2022-09-15T03:45:20.562Z,13.23
2022-09-15T03:47:22.165Z,11.02
2022-09-15T03:49:24.805Z,6.25
2022-09-15T03:51:27.004Z,8.68
2022-09-15T03:53:31.660Z,9.90
2022-09-15T03:55:33.274Z,13.88
2022-09-15T03:57:35.102Z,18.63
2022-09-15T03:59:36.691Z,10.88
2022-09-15T04:01:38.285Z,9.50
2022-09-15T04:03:45.238Z,7.28
2022-09-15T04:05:49.295Z,7.93
2022-09-15T04:07:51.252Z,9.23
2022-09-15T04:09:53.323Z,7.28
2022-09-15T04:11:54.906Z,9.90
2022-09-15T04:13:56.757Z,9.40
2022-09-15T04:16:01.246Z,12.35
2022-09-15T04:18:04.418Z,12.95
2022-09-15T04:20:06.520Z,6.32
2022-09-15T04:22:08.442Z,11.05
2022-09-15T04:24:10.101Z,8.55
2022-09-15T04:26:17.560Z,12.98
2022-09-15T04:28:19.192Z,7.78
2022-09-15T04:30:20.778Z,10.23
2022-09-15T04:32:22.477Z,9.68
2022-09-15T04:34:24.669Z,11.00
2022-09-15T04:36:28.466Z,12.35
2022-09-15T04:38:30.531Z,11.68
2022-09-15T04:40:32.273Z,13.57
2022-09-15T04:42:33.840Z,10.30
2022-09-15T04:44:35.467Z,9.02
2022-09-15T04:46:37.202Z,9.65
2022-09-15T04:48:38.860Z,18.50
2022-09-15T04:50:40.801Z,15.98
2022-09-15T04:52:42.603Z,13.95
2022-09-15T04:54:44.199Z,6.75
2022-09-15T04:56:45.787Z,13.65
2022-09-15T04:58:50.885Z,13.02
2022-09-15T05:00:52.525Z,13.05
2022-09-15T05:02:54.235Z,11.80
2022-09-15T05:04:55.896Z,13.75
2022-09-15T05:06:57.544Z,14.50
2022-09-15T05:08:59.146Z,15.43
2022-09-15T05:11:03.535Z,15.48
2022-09-15T05:13:05.254Z,12.73
2022-09-15T05:15:07.894Z,11.52
2022-09-15T05:17:09.588Z,15.55
2022-09-15T05:19:11.587Z,10.50
2022-09-15T05:21:15.096Z,12.80
2022-09-15T05:23:16.768Z,12.50
2022-09-15T05:25:18.351Z,13.35
2022-09-15T05:27:20.502Z,19.42
2022-09-15T05:29:22.135Z,20.77
2022-09-15T05:31:30.989Z,21.38
2022-09-15T05:33:32.855Z,31.55
2022-09-15T05:35:34.474Z,14.07
2022-09-15T05:37:36.111Z,19.08
2022-09-15T05:39:39.369Z,14.93
2022-09-15T05:41:41.273Z,17.20
2022-09-15T05:43:45.239Z,11.13
2022-09-15T05:45:54.791Z,13.35
2022-09-15T05:47:56.412Z,13.05
2022-09-15T05:49:58.047Z,10.20
2022-09-15T05:51:59.663Z,12.07
2022-09-15T05:54:01.247Z,8.50
2022-09-15T05:56:05.686Z,9.23
2022-09-15T05:58:07.331Z,14.82
2022-09-15T06:00:09.652Z,17.13
2022-09-15T06:02:12.113Z,11.02
2022-09-15T06:04:13.731Z,13.05
2022-09-15T06:06:15.899Z,12.23
2022-09-15T06:08:17.581Z,12.85
2022-09-15T06:10:19.297Z,15.05
2022-09-15T06:12:21.190Z,8.50
2022-09-15T06:14:22.886Z,11.15
2022-09-15T06:16:25.353Z,8.68
2022-09-15T06:18:27.032Z,14.82
2022-09-15T06:20:28.843Z,12.32
2022-09-15T06:22:30.427Z,12.18
2022-09-15T06:24:32.076Z,8.00
2022-09-15T06:26:34.634Z,8.95
2022-09-15T06:28:36.348Z,11.25
2022-09-15T06:30:41.023Z,12.95
2022-09-15T06:32:47.373Z,13.52
2022-09-15T06:34:49.794Z,10.98
2022-09-15T06:36:51.370Z,9.18
2022-09-15T06:38:53.504Z,9.45
2022-09-15T06:40:59.235Z,10.73
2022-09-15T06:43:00.839Z,13.07
2022-09-15T06:45:03.083Z,9.30
2022-09-15T06:47:05.393Z,10.20
2022-09-15T06:49:07.189Z,11.32
2022-09-15T06:51:11.169Z,11.45
2022-09-15T06:53:12.832Z,12.75
2022-09-15T06:55:14.447Z,11.05
2022-09-15T06:57:16.050Z,12.30
2022-09-15T06:59:17.822Z,11.52
2022-09-15T07:01:27.245Z,9.73
2022-09-15T07:03:28.918Z,8.43
2022-09-15T07:05:30.829Z,10.95
2022-09-15T07:07:32.414Z,6.20
2022-09-15T07:09:33.960Z,12.52
2022-09-15T07:11:35.777Z,7.13
2022-09-15T07:13:37.896Z,8.63
2022-09-15T07:15:39.618Z,12.32
2022-09-15T07:17:41.305Z,12.40
2022-09-15T07:19:43.220Z,14.23
2022-09-15T07:21:44.788Z,14.65
2022-09-15T07:23:47.526Z,16.73
2022-09-15T07:25:49.103Z,13.35
2022-09-15T07:27:50.694Z,12.65
2022-09-15T07:29:52.430Z,19.38
2022-09-15T07:31:54.189Z,19.90
2022-09-15T07:33:56.061Z,13.95
2022-09-15T07:35:57.995Z,10.43
2022-09-15T07:38:00.636Z,15.13
2022-09-15T07:40:02.618Z,9.20
2022-09-15T07:42:04.552Z,14.98
2022-09-15T07:44:07.210Z,12.68
2022-09-15T07:46:08.912Z,21.27
2022-09-15T07:48:10.692Z,27.20
2022-09-15T07:50:14.363Z,12.90
2022-09-15T07:52:16.284Z,11.90
2022-09-15T07:54:22.008Z,19.85
2022-09-15T07:56:24.706Z,10.57
2022-09-15T07:58:26.790Z,15.27
2022-09-15T08:00:29.040Z,13.25
2022-09-15T08:02:30.678Z,12.00
2022-09-15T08:04:32.259Z,11.98
2022-09-15T08:06:36.717Z,14.32
2022-09-15T08:08:39.618Z,15.20
2022-09-15T08:10:41.856Z,10.90
2022-09-15T08:12:43.541Z,10.80
2022-09-15T08:14:45.155Z,15.00
2022-09-15T08:16:46.814Z,9.95
2022-09-15T08:18:49.333Z,16.63
2022-09-15T08:20:51.134Z,7.57
2022-09-15T08:22:53.032Z,8.63
2022-09-15T08:24:54.727Z,9.25
2022-09-15T08:26:56.306Z,11.98
2022-09-15T08:28:58.250Z,12.50
2022-09-15T08:31:05.879Z,12.98
2022-09-15T08:33:07.527Z,13.45
2022-09-15T08:35:09.387Z,16.45
2022-09-15T08:37:12.380Z,10.88
2022-09-15T08:39:14.017Z,10.52
2022-09-15T08:41:40.127Z,11.15
2022-09-15T08:43:47.163Z,11.07
2022-09-15T08:46:04.963Z,11.13
2022-09-15T08:48:08.520Z,14.63
2022-09-15T08:52:50.166Z,15.48
2022-09-15T08:54:54.096Z,14.30
2022-09-15T08:56:56.761Z,13.70
2022-09-15T08:58:58.349Z,11.70
2022-09-15T09:01:04.332Z,9.95
2022-09-15T09:03:23.515Z,10.38
2022-09-15T09:05:43.331Z,10.02
2022-09-15T09:08:16.696Z,12.20
2022-09-15T09:10:50.370Z,17.70
2022-09-15T09:12:51.909Z,8.77
2022-09-15T09:15:05.484Z,11.18
2022-09-15T09:17:35.337Z,11.55
2022-09-15T09:19:58.208Z,12.63
2022-09-15T09:22:10.188Z,11.15
2022-09-15T09:24:44.402Z,12.10
2022-09-15T09:26:49.737Z,13.82
2022-09-15T09:28:59.483Z,8.20
2022-09-15T09:31:07.660Z,13.85
2022-09-15T09:33:31.802Z,16.23
2022-09-15T09:37:39.930Z,11.93
2022-09-15T09:39:41.783Z,16.83
2022-09-15T09:41:44.183Z,10.90
2022-09-15T09:43:47.971Z,8.85
2022-09-15T09:45:50.281Z,15.80
2022-09-15T09:47:53.354Z,11.30
2022-09-15T09:49:55.328Z,8.75
2022-09-15T09:51:59.986Z,13.48
2022-09-15T09:54:16.271Z,12.18
2022-09-15T09:56:25.560Z,11.23
2022-09-15T09:58:27.221Z,14.68
2022-09-15T10:00:37.828Z,13.02
2022-09-15T10:02:46.916Z,8.13
2022-09-15T10:04:50.539Z,9.70
2022-09-15T10:06:56.113Z,8.07
2022-09-15T10:09:00.121Z,9.95
2022-09-15T10:11:10.624Z,10.65
2022-09-15T10:13:12.754Z,8.80
2022-09-15T10:15:22.308Z,11.65
2022-09-15T10:17:42.350Z,10.77
2022-09-15T10:19:47.745Z,12.85
2022-09-15T10:21:49.470Z,10.55
2022-09-15T10:23:51.215Z,9.75
2022-09-15T10:25:59.953Z,9.13
2022-09-15T10:28:23.058Z,15.13
2022-09-15T10:30:25.320Z,12.48
2022-09-15T10:32:28.349Z,8.38
2022-09-15T10:34:31.564Z,10.35
2022-09-15T10:38:40.493Z,15.88
2022-09-15T10:40:48.226Z,13.55
2022-09-15T10:42:54.117Z,6.63
2022-09-15T10:45:11.189Z,14.85
2022-09-15T10:47:26.147Z,7.55
2022-09-15T10:49:54.733Z,12.23
2022-09-15T10:52:22.148Z,14.27
2022-09-15T10:54:45.654Z,12.40
2022-09-15T10:56:49.792Z,10.95
2022-09-15T10:59:22.553Z,10.07
2022-09-15T11:01:30.127Z,13.07
2022-09-15T11:04:03.912Z,11.18
2022-09-15T11:06:26.105Z,7.75
2022-09-15T11:08:40.322Z,11.98
2022-09-15T11:10:48.051Z,11.90
2022-09-15T11:13:18.919Z,5.47
2022-09-15T11:15:52.199Z,7.32
2022-09-15T11:18:05.871Z,8.35
2022-09-15T11:20:33.389Z,13.35
2022-09-15T11:22:39.232Z,8.05
2022-09-15T11:25:02.886Z,9.82
2022-09-15T11:27:25.848Z,11.40
2022-09-15T11:30:07.004Z,10.93
2022-09-15T11:32:16.129Z,15.32
2022-09-15T11:34:24.903Z,11.43
2022-09-15T11:36:32.346Z,8.68
2022-09-15T11:38:38.651Z,11.40
2022-09-15T11:40:46.766Z,12.52
2022-09-15T11:43:05.498Z,10.50
2022-09-15T11:45:16.366Z,12.70
2022-09-15T11:47:47.477Z,14.57
2022-09-15T11:49:58.723Z,6.57
2022-09-15T11:52:07.431Z,10.60
2022-09-15T11:54:17.460Z,14.70
2022-09-15T11:56:26.199Z,9.40
2022-09-15T11:58:48.905Z,10.75
2022-09-15T12:01:02.017Z,13.18
2022-09-15T12:03:03.848Z,8.43
2022-09-15T12:05:16.005Z,12.23
2022-09-15T12:07:23.290Z,10.95
2022-09-15T12:09:25.166Z,9.48
2022-09-15T12:11:30.466Z,10.88
2022-09-15T12:13:32.124Z,10.23
2022-09-15T12:15:34.110Z,9.45
2022-09-15T12:17:42.116Z,11.32
2022-09-15T12:19:46.273Z,6.95
2022-09-15T12:21:53.448Z,6.63
2022-09-15T12:23:59.594Z,6.03
2022-09-15T12:26:23.441Z,9.35
2022-09-15T12:30:42.722Z,6.25
2022-09-15T12:32:44.338Z,13.15
2022-09-15T12:34:57.449Z,8.13
2022-09-15T12:37:14.817Z,9.48
2022-09-15T12:39:38.592Z,8.88
2022-09-15T12:41:50.334Z,6.80
2022-09-15T12:43:57.729Z,9.98
2022-09-15T12:46:01.028Z,8.80
2022-09-15T12:48:06.551Z,5.18
2022-09-15T12:50:14.193Z,8.82
2022-09-15T12:52:16.419Z,9.25
2022-09-15T12:54:23.562Z,11.03
2022-09-15T12:56:27.967Z,7.40
2022-09-15T12:58:47.621Z,7.30
2022-09-15T13:01:16.642Z,14.60
2022-09-15T13:03:55.403Z,10.40
2022-09-15T13:06:22.010Z,9.20
2022-09-15T13:08:29.533Z,6.70
2022-09-15T13:10:35.046Z,7.22
2022-09-15T13:12:41.890Z,14.38
2022-09-15T13:14:48.273Z,8.52
2022-09-15T13:16:54.889Z,13.80
2022-09-15T13:19:18.792Z,11.10
2022-09-15T13:21:22.128Z,8.63
2022-09-15T13:23:25.763Z,10.15
2022-09-15T13:25:29.296Z,8.65
2022-09-15T13:27:54.744Z,7.13
2022-09-15T13:30:25.448Z,8.55
2022-09-15T13:32:43.786Z,7.65
2022-09-15T13:35:13.317Z,10.02
2022-09-15T13:39:59.657Z,9.10
2022-09-15T13:42:09.492Z,11.77
2022-09-15T13:44:49.185Z,8.90
2022-09-15T13:47:12.483Z,13.57
2022-09-15T13:49:38.048Z,9.98
2022-09-15T13:51:41.748Z,7.82
2022-09-15T13:53:49.873Z,9.60
2022-09-15T13:55:53.735Z,7.78
2022-09-15T14:00:23.295Z,9.27
2022-09-15T14:02:25.147Z,13.55
2022-09-15T14:04:29.434Z,10.00
2022-09-15T14:06:36.822Z,6.45
2022-09-15T14:08:38.740Z,12.73
2022-09-15T14:10:49.220Z,12.18
2022-09-15T14:12:51.683Z,7.88
2022-09-15T14:14:56.274Z,10.95
2022-09-15T14:16:57.983Z,12.63
2022-09-15T14:19:00.214Z,7.68
2022-09-15T14:21:04.525Z,11.88
2022-09-15T14:23:16.378Z,18.30
2022-09-15T14:25:19.240Z,9.30
2022-09-15T14:27:32.835Z,12.60
2022-09-15T14:29:39.860Z,13.80
2022-09-15T14:31:41.530Z,11.30
2022-09-15T14:33:45.658Z,15.30
2022-09-15T14:35:47.569Z,9.50
2022-09-15T14:37:50.625Z,12.80
2022-09-15T14:39:56.508Z,10.73
2022-09-15T14:44:01.137Z,10.18
2022-09-15T14:46:18.229Z,12.23
2022-09-15T14:48:27.096Z,10.40
2022-09-15T14:50:32.812Z,8.90
2022-09-15T14:52:57.699Z,8.10
2022-09-15T14:55:06.351Z,10.35
2022-09-15T14:57:09.221Z,6.45
2022-09-15T14:59:16.941Z,11.63
2022-09-15T15:01:40.622Z,10.82
2022-09-15T15:03:50.060Z,12.48
2022-09-15T15:06:02.767Z,7.60
2022-09-15T15:08:46.896Z,11.50
2022-09-15T15:10:48.792Z,9.60
2022-09-15T15:12:52.998Z,9.73
2022-09-15T15:14:55.657Z,15.35
2022-09-15T15:17:03.802Z,13.10
2022-09-15T15:19:05.528Z,13.45
2022-09-15T15:21:45.592Z,11.35
2022-09-15T15:23:47.265Z,10.85
2022-09-15T15:25:49.431Z,15.90
2022-09-15T15:27:52.923Z,9.18
2022-09-15T15:29:54.517Z,7.60
2022-09-15T15:32:12.122Z,16.52
2022-09-15T15:34:25.628Z,14.85
2022-09-15T15:38:34.261Z,12.48
2022-09-15T15:40:37.910Z,12.18
2022-09-15T15:42:52.767Z,11.73
2022-09-15T15:45:09.561Z,12.68
2022-09-15T15:47:14.117Z,11.70
2022-09-15T15:49:16.321Z,10.68
2022-09-15T15:51:17.939Z,11.30
2022-09-15T15:53:19.662Z,11.15
2022-09-15T15:55:23.625Z,9.88
2022-09-15T15:57:27.583Z,10.18
2022-09-15T15:59:29.183Z,9.48
2022-09-15T16:01:31.132Z,12.43
2022-09-15T16:03:32.697Z,10.00
2022-09-15T16:05:34.540Z,12.20
2022-09-15T16:07:36.231Z,14.00
2022-09-15T16:09:37.821Z,9.95
2022-09-15T16:11:40.967Z,10.88
2022-09-15T16:13:43.134Z,13.75
2022-09-15T16:15:45.546Z,17.55
2022-09-15T16:17:47.882Z,43.23
2022-09-15T16:19:49.448Z,26.97
2022-09-15T16:21:51.094Z,22.45
2022-09-15T16:23:52.791Z,13.15
2022-09-15T16:26:05.597Z,34.75
2022-09-15T16:28:07.183Z,22.03
2022-09-15T16:30:12.115Z,9.77
2022-09-15T16:32:22.194Z,20.02
2022-09-15T16:34:23.739Z,14.55
2022-09-15T16:36:26.088Z,22.92
2022-09-15T16:38:28.670Z,31.55
2022-09-15T16:40:30.425Z,52.83
2022-09-15T16:42:32.068Z,42.20
2022-09-15T16:44:34.072Z,26.85
2022-09-15T16:46:35.674Z,26.75
2022-09-15T16:48:41.240Z,30.08
2022-09-15T16:51:16.850Z,17.90
2022-09-15T16:53:05.539Z,23.63
2022-09-15T16:55:27.360Z,15.65
2022-09-15T16:57:29.122Z,17.85
2022-09-15T16:59:31.634Z,14.73
2022-09-15T17:01:33.419Z,13.87
2022-09-15T17:03:35.115Z,17.30
2022-09-15T17:05:45.142Z,14.77
2022-09-15T17:07:49.533Z,12.27
2022-09-15T17:09:51.266Z,12.10
2022-09-15T17:11:54.646Z,16.05
2022-09-15T17:15:59.199Z,15.05
2022-09-15T17:18:01.077Z,18.92
2022-09-15T17:20:02.656Z,12.80
2022-09-15T17:22:04.293Z,15.73
2022-09-15T17:24:05.997Z,15.15
2022-09-15T17:26:30.491Z,13.18
2022-09-15T17:28:34.982Z,12.88
2022-09-15T17:30:37.019Z,16.05
2022-09-15T17:32:38.918Z,20.48
2022-09-15T17:34:40.615Z,24.60
2022-09-15T17:36:42.298Z,16.60
2022-09-15T17:38:45.387Z,21.20
2022-09-15T17:40:48.034Z,13.63
2022-09-15T17:42:49.649Z,14.90
2022-09-15T17:44:51.183Z,40.33
2022-09-15T17:46:52.962Z,31.48
2022-09-15T17:48:54.767Z,31.15
2022-09-15T17:50:56.353Z,17.52
2022-09-15T17:52:58.290Z,17.23
2022-09-15T17:55:01.136Z,14.68
2022-09-15T17:57:03.966Z,12.93
2022-09-15T17:59:05.590Z,7.63
2022-09-15T18:01:07.197Z,7.07
2022-09-15T18:03:30.858Z,9.50
2022-09-15T18:05:34.952Z,16.38
2022-09-15T18:07:36.518Z,15.77
2022-09-15T18:09:38.534Z,21.42
2022-09-15T18:11:40.170Z,12.63
2022-09-15T18:13:41.937Z,18.42
2022-09-15T18:15:43.926Z,14.45
2022-09-15T18:17:45.547Z,18.55
2022-09-15T18:19:47.096Z,16.42
2022-09-15T18:21:52.890Z,24.38
2022-09-15T18:23:56.051Z,18.58
2022-09-15T18:25:58.111Z,26.30
2022-09-15T18:28:00.543Z,23.58
2022-09-15T18:30:02.169Z,21.02
2022-09-15T18:32:04.170Z,21.52
2022-09-15T18:34:06.202Z,19.08
2022-09-15T18:36:07.971Z,31.50
2022-09-15T18:38:10.303Z,18.48
2022-09-15T18:40:14.121Z,19.00
2022-09-15T18:42:15.745Z,25.35
2022-09-15T18:44:17.369Z,20.80
2022-09-15T18:46:20.521Z,23.73
2022-09-15T18:48:22.247Z,21.70
2022-09-15T18:50:25.592Z,27.05
2022-09-15T18:52:28.066Z,17.10
2022-09-15T18:54:29.792Z,32.03
2022-09-15T18:56:31.456Z,18.98
2022-09-15T18:58:33.135Z,21.40
2022-09-15T19:00:34.934Z,18.55
2022-09-15T19:02:36.715Z,24.13
2022-09-15T19:04:40.653Z,18.90
2022-09-15T19:06:42.425Z,28.40
2022-09-15T19:08:44.313Z,29.13
2022-09-15T19:10:47.882Z,14.65
2022-09-15T19:12:49.637Z,16.63
2022-09-15T19:14:51.365Z,26.73
2022-09-15T19:16:57.993Z,22.30
2022-09-15T19:19:00.545Z,19.00
2022-09-15T19:21:06.975Z,17.42
2022-09-15T19:23:09.673Z,17.60
2022-09-15T19:25:12.949Z,17.95
2022-09-15T19:27:14.977Z,15.23
2022-09-15T19:29:16.640Z,19.88
2022-09-15T19:31:18.345Z,15.52
2022-09-15T19:33:20.049Z,21.90
2022-09-15T19:35:21.699Z,19.58
2022-09-15T19:37:23.806Z,19.33
2022-09-15T19:39:25.618Z,15.35
2022-09-15T19:41:27.246Z,18.25
2022-09-15T19:43:28.934Z,18.25
2022-09-15T19:45:30.509Z,14.45
2022-09-15T19:47:32.159Z,13.80
2022-09-15T19:49:34.008Z,16.52
2022-09-15T19:51:35.788Z,16.75
2022-09-15T19:53:37.686Z,12.82
2022-09-15T19:55:39.405Z,11.20
2022-09-15T19:57:41.879Z,6.82
2022-09-15T19:59:44.765Z,13.30
2022-09-15T20:01:46.902Z,14.00
2022-09-15T20:03:48.611Z,12.10
2022-09-15T20:05:51.676Z,12.68
2022-09-15T20:07:53.468Z,13.10
2022-09-15T20:09:55.205Z,13.93
2022-09-15T20:11:56.768Z,14.65
2022-09-15T20:13:58.959Z,11.77
2022-09-15T20:16:02.841Z,9.93
2022-09-15T20:18:06.556Z,9.98
2022-09-15T20:20:10.473Z,14.52
2022-09-15T20:22:12.040Z,15.07
2022-09-15T20:24:13.665Z,16.52
2022-09-15T20:26:17.334Z,10.88
2022-09-15T20:28:18.920Z,12.13
2022-09-15T20:30:21.070Z,12.57
2022-09-15T20:32:28.024Z,13.60
2022-09-15T20:34:30.038Z,13.90
2022-09-15T20:36:34.445Z,13.65
2022-09-15T20:38:37.541Z,15.18
2022-09-15T20:40:39.197Z,10.10
2022-09-15T20:42:40.769Z,9.95
2022-09-15T20:44:42.365Z,10.73
2022-09-15T20:46:44.148Z,19.70
2022-09-15T20:48:46.670Z,15.50
2022-09-15T20:50:48.360Z,14.32
2022-09-15T20:52:49.961Z,14.77
2022-09-15T20:54:51.577Z,12.45
2022-09-15T20:56:53.209Z,13.80
2022-09-15T20:58:56.801Z,16.65
2022-09-15T21:01:10.403Z,10.68
2022-09-15T21:03:12.030Z,11.07
2022-09-15T21:05:13.698Z,11.63
2022-09-15T21:07:15.292Z,14.07
2022-09-15T21:09:17.188Z,10.07
2022-09-15T21:11:20.318Z,14.75
2022-09-15T21:13:22.931Z,8.82
2022-09-15T21:15:24.561Z,14.80
2022-09-15T21:17:26.194Z,10.95
2022-09-15T21:19:27.776Z,14.35
2022-09-15T21:21:31.910Z,13.90
2022-09-15T21:23:40.862Z,20.60
2022-09-15T21:25:42.631Z,13.50
2022-09-15T21:27:46.340Z,18.02
2022-09-15T21:29:48.253Z,15.45
2022-09-15T21:31:50.285Z,10.80
2022-09-15T21:33:53.473Z,16.83
2022-09-15T21:36:09.868Z,13.45
2022-09-15T21:38:12.109Z,10.95
2022-09-15T21:40:14.075Z,12.50
2022-09-15T21:42:15.755Z,14.35
2022-09-15T21:44:17.432Z,14.65
2022-09-15T21:46:20.040Z,14.40
2022-09-15T21:48:21.599Z,10.47
2022-09-15T21:50:23.189Z,14.82
2022-09-15T21:52:25.692Z,14.75
2022-09-15T21:54:27.359Z,10.48
2022-09-15T21:56:30.235Z,9.57
2022-09-15T21:58:38.975Z,9.95
2022-09-15T22:00:43.885Z,10.85
2022-09-15T22:02:45.486Z,10.10
2022-09-15T22:04:47.208Z,16.92
2022-09-15T22:06:50.182Z,10.40
2022-09-15T22:08:51.745Z,10.38
2022-09-15T22:10:59.285Z,9.75
2022-09-15T22:13:00.848Z,11.38
2022-09-15T22:15:02.439Z,13.32
2022-09-15T22:17:04.112Z,11.77
2022-09-15T22:19:07.030Z,9.32
2022-09-15T22:21:11.977Z,11.65
2022-09-15T22:23:13.584Z,6.47
2022-09-15T22:25:19.783Z,8.57
2022-09-15T22:27:23.357Z,13.63
2022-09-15T22:29:25.047Z,9.82
2022-09-15T22:31:27.839Z,13.13
2022-09-15T22:33:30.096Z,9.32
2022-09-15T22:35:31.976Z,14.88
2022-09-15T22:37:34.149Z,19.08
2022-09-15T22:39:58.012Z,10.00
2022-09-15T22:41:57.436Z,11.65
2022-09-15T22:43:59.150Z,11.48
2022-09-15T22:46:01.370Z,16.40
2022-09-15T22:48:03.119Z,14.63
2022-09-15T22:50:05.070Z,12.25
2022-09-15T22:52:06.764Z,14.38
2022-09-15T22:54:08.439Z,9.68
2022-09-15T22:56:14.117Z,12.85
2022-09-15T22:58:15.789Z,7.57
2022-09-15T23:00:17.634Z,8.60
2022-09-15T23:02:19.285Z,11.20
2022-09-15T23:04:21.164Z,9.90
2022-09-15T23:06:23.627Z,9.07
2022-09-15T23:08:25.219Z,10.05
2022-09-15T23:10:27.095Z,9.40
2022-09-15T23:12:32.474Z,13.05
2022-09-15T23:14:34.080Z,11.00
2022-09-15T23:16:36.652Z,8.73
2022-09-15T23:18:38.328Z,7.80
2022-09-15T23:20:40.407Z,8.38
2022-09-15T23:22:42.077Z,12.43
2022-09-15T23:24:43.871Z,10.13
2022-09-15T23:26:45.442Z,15.52
2022-09-15T23:28:47.644Z,7.95
2022-09-15T23:30:53.870Z,9.52
2022-09-15T23:32:55.551Z,8.40
2022-09-15T23:34:57.193Z,9.95
2022-09-15T23:36:58.768Z,10.70
2022-09-15T23:39:00.462Z,11.82
2022-09-15T23:41:02.527Z,9.18
2022-09-15T23:43:04.099Z,13.95
2022-09-15T23:45:06.183Z,7.82
2022-09-15T23:47:07.865Z,8.55
2022-09-15T23:49:09.639Z,11.95
2022-09-15T23:51:11.390Z,7.47
2022-09-15T23:53:13.216Z,9.93
2022-09-15T23:55:14.988Z,8.70
2022-09-15T23:57:16.548Z,7.63
2022-09-15T23:59:18.377Z,10.27
